sensor_id;sensor_type;location;lat;lon;timestamp;pressure;altitude;pressure_sealevel;temperature;humidity
46129;BME280;31860;45.186;5.790;2023-09-30T00:01:44;99800.94;;;23.88;83.78
46129;BME280;31860;45.186;5.790;2023-09-30T00:04:10;99794.78;;;23.86;83.34
46129;BME280;31860;45.186;5.790;2023-09-30T00:06:36;99798.38;;;23.85;83.41
46129;BME280;31860;45.186;5.790;2023-09-30T00:09:01;99802.00;;;23.84;82.99
46129;BME280;31860;45.186;5.790;2023-09-30T00:11:27;99793.31;;;23.79;82.90
46129;BME280;31860;45.186;5.790;2023-09-30T00:13:53;99800.53;;;23.77;83.28
46129;BME280;31860;45.186;5.790;2023-09-30T00:16:18;99803.31;;;23.74;83.37
46129;BME280;31860;45.186;5.790;2023-09-30T00:18:44;99796.25;;;23.73;83.79
46129;BME280;31860;45.186;5.790;2023-09-30T00:21:10;99790.19;;;23.70;84.16
46129;BME280;31860;45.186;5.790;2023-09-30T00:23:35;99786.66;;;23.69;84.39
46129;BME280;31860;45.186;5.790;2023-09-30T00:26:01;99786.84;;;23.65;84.78
46129;BME280;31860;45.186;5.790;2023-09-30T00:28:26;99790.44;;;23.64;84.59
46129;BME280;31860;45.186;5.790;2023-09-30T00:30:52;99787.78;;;23.64;84.81
46129;BME280;31860;45.186;5.790;2023-09-30T00:33:17;99790.53;;;23.62;85.34
46129;BME280;31860;45.186;5.790;2023-09-30T00:35:42;99788.91;;;23.58;85.87
46129;BME280;31860;45.186;5.790;2023-09-30T00:38:08;99796.13;;;23.56;86.47
46129;BME280;31860;45.186;5.790;2023-09-30T00:40:35;99790.84;;;23.55;86.04
46129;BME280;31860;45.186;5.790;2023-09-30T00:43:00;99797.19;;;23.52;86.48
46129;BME280;31860;45.186;5.790;2023-09-30T00:45:27;99790.25;;;23.48;86.92
46129;BME280;31860;45.186;5.790;2023-09-30T00:47:53;99799.28;;;23.44;87.12
46129;BME280;31860;45.186;5.790;2023-09-30T00:50:19;99797.66;;;23.41;87.37
46129;BME280;31860;45.186;5.790;2023-09-30T00:52:47;99799.44;;;23.41;87.55
46129;BME280;31860;45.186;5.790;2023-09-30T00:55:14;99790.56;;;23.40;87.16
46129;BME280;31860;45.186;5.790;2023-09-30T00:57:40;99791.44;;;23.41;87.15
46129;BME280;31860;45.186;5.790;2023-09-30T01:00:07;99787.03;;;23.40;87.46
46129;BME280;31860;45.186;5.790;2023-09-30T01:02:33;99787.03;;;23.40;87.23
46129;BME280;31860;45.186;5.790;2023-09-30T01:05:01;99793.22;;;23.40;87.25
46129;BME280;31860;45.186;5.790;2023-09-30T01:07:26;99787.31;;;23.34;87.42
46129;BME280;31860;45.186;5.790;2023-09-30T01:09:51;99785.47;;;23.34;87.35
46129;BME280;31860;45.186;5.790;2023-09-30T01:12:17;99787.44;;;23.29;87.66
46129;BME280;31860;45.186;5.790;2023-09-30T01:14:42;99793.78;;;23.27;88.00
46129;BME280;31860;45.186;5.790;2023-09-30T01:17:09;99793.97;;;23.22;88.17
46129;BME280;31860;45.186;5.790;2023-09-30T01:19:35;99792.38;;;23.18;88.74
46129;BME280;31860;45.186;5.790;2023-09-30T01:22:00;99796.09;;;23.14;89.02
46129;BME280;31860;45.186;5.790;2023-09-30T01:24:28;99799.88;;;23.09;89.64
46129;BME280;31860;45.186;5.790;2023-09-30T01:26:54;99811.59;;;23.05;90.34
46129;BME280;31860;45.186;5.790;2023-09-30T01:29:20;99802.69;;;23.06;90.72
46129;BME280;31860;45.186;5.790;2023-09-30T01:31:45;99791.13;;;23.05;90.78
46129;BME280;31860;45.186;5.790;2023-09-30T01:34:15;99792.94;;;23.05;90.30
46129;BME280;31860;45.186;5.790;2023-09-30T01:36:44;99796.53;;;23.04;90.54
46129;BME280;31860;45.186;5.790;2023-09-30T01:39:10;99790.25;;;23.05;90.29
46129;BME280;31860;45.186;5.790;2023-09-30T01:41:40;99800.94;;;23.05;90.21
46129;BME280;31860;45.186;5.790;2023-09-30T01:44:06;99809.16;;;22.99;90.88
46129;BME280;31860;45.186;5.790;2023-09-30T01:46:31;99811.16;;;22.94;92.24
46129;BME280;31860;45.186;5.790;2023-09-30T01:48:57;99803.41;;;22.88;93.04
46129;BME280;31860;45.186;5.790;2023-09-30T01:51:22;99800.75;;;22.88;92.55
46129;BME280;31860;45.186;5.790;2023-09-30T01:53:48;99801.75;;;22.85;92.89
46129;BME280;31860;45.186;5.790;2023-09-30T01:56:14;99799.13;;;22.84;93.09
46129;BME280;31860;45.186;5.790;2023-09-30T01:58:39;99795.59;;;22.83;93.15
46129;BME280;31860;45.186;5.790;2023-09-30T02:01:05;99801.78;;;22.84;92.87
46129;BME280;31860;45.186;5.790;2023-09-30T02:03:31;99798.44;;;22.79;93.04
46129;BME280;31860;45.186;5.790;2023-09-30T02:05:59;99802.06;;;22.78;93.51
46129;BME280;31860;45.186;5.790;2023-09-30T02:08:24;99809.25;;;22.76;93.04
46129;BME280;31860;45.186;5.790;2023-09-30T02:10:50;99804.16;;;22.70;93.95
46129;BME280;31860;45.186;5.790;2023-09-30T02:13:19;99812.19;;;22.68;94.05
46129;BME280;31860;45.186;5.790;2023-09-30T02:15:45;99811.56;;;22.62;94.84
46129;BME280;31860;45.186;5.790;2023-09-30T02:18:10;99810.75;;;22.59;95.05
46129;BME280;31860;45.186;5.790;2023-09-30T02:20:39;99806.41;;;22.57;95.17
46129;BME280;31860;45.186;5.790;2023-09-30T02:23:11;99810.94;;;22.53;95.59
46129;BME280;31860;45.186;5.790;2023-09-30T02:25:37;99821.59;;;22.53;95.61
46129;BME280;31860;45.186;5.790;2023-09-30T02:28:03;99803.97;;;22.51;96.11
46129;BME280;31860;45.186;5.790;2023-09-30T02:30:29;99811.88;;;22.52;96.07
46129;BME280;31860;45.186;5.790;2023-09-30T02:32:56;99804.06;;;22.48;96.55
46129;BME280;31860;45.186;5.790;2023-09-30T02:35:22;99791.75;;;22.45;96.65
46129;BME280;31860;45.186;5.790;2023-09-30T02:37:48;99805.06;;;22.45;96.91
46129;BME280;31860;45.186;5.790;2023-09-30T02:40:14;99804.19;;;22.45;97.20
46129;BME280;31860;45.186;5.790;2023-09-30T02:42:42;99805.00;;;22.47;96.82
46129;BME280;31860;45.186;5.790;2023-09-30T02:45:09;99804.19;;;22.45;96.83
46129;BME280;31860;45.186;5.790;2023-09-30T02:47:36;99805.16;;;22.42;96.93
46129;BME280;31860;45.186;5.790;2023-09-30T02:50:03;99813.16;;;22.42;97.50
46129;BME280;31860;45.186;5.790;2023-09-30T02:52:30;99798.06;;;22.43;97.17
46129;BME280;31860;45.186;5.790;2023-09-30T02:54:55;99807.88;;;22.41;97.94
46129;BME280;31860;45.186;5.790;2023-09-30T02:57:22;99804.25;;;22.43;100.00
46129;BME280;31860;45.186;5.790;2023-09-30T02:59:48;99812.19;;;22.45;100.00
46129;BME280;31860;45.186;5.790;2023-09-30T03:02:13;99809.50;;;22.45;100.00
46129;BME280;31860;45.186;5.790;2023-09-30T03:04:40;99802.44;;;22.44;100.00
46129;BME280;31860;45.186;5.790;2023-09-30T03:07:08;99807.75;;;22.44;100.00
46129;BME280;31860;45.186;5.790;2023-09-30T03:09:34;99804.41;;;22.39;100.00
46129;BME280;31860;45.186;5.790;2023-09-30T03:11:59;99808.03;;;22.38;100.00
46129;BME280;31860;45.186;5.790;2023-09-30T03:14:25;99804.63;;;22.33;100.00
46129;BME280;31860;45.186;5.790;2023-09-30T03:16:51;99801.16;;;22.31;100.00
46129;BME280;31860;45.186;5.790;2023-09-30T03:19:17;99804.78;;;22.30;100.00
46129;BME280;31860;45.186;5.790;2023-09-30T03:21:43;99802.03;;;22.31;100.00
46129;BME280;31860;45.186;5.790;2023-09-30T03:24:08;99807.50;;;22.28;100.00
46129;BME280;31860;45.186;5.790;2023-09-30T03:26:34;99812.81;;;22.28;100.00
46129;BME280;31860;45.186;5.790;2023-09-30T03:29:00;99812.06;;;22.25;100.00
46129;BME280;31860;45.186;5.790;2023-09-30T03:31:26;99811.19;;;22.24;100.00
46129;BME280;31860;45.186;5.790;2023-09-30T03:33:52;99812.00;;;22.26;100.00
46129;BME280;31860;45.186;5.790;2023-09-30T03:36:20;99817.50;;;22.22;100.00
46129;BME280;31860;45.186;5.790;2023-09-30T03:38:47;99822.00;;;22.20;100.00
46129;BME280;31860;45.186;5.790;2023-09-30T03:41:12;99815.78;;;22.21;100.00
46129;BME280;31860;45.186;5.790;2023-09-30T03:43:41;99809.56;;;22.20;100.00
46129;BME280;31860;45.186;5.790;2023-09-30T03:46:08;99802.47;;;22.21;100.00
46129;BME280;31860;45.186;5.790;2023-09-30T03:48:33;99805.22;;;22.18;100.00
46129;BME280;31860;45.186;5.790;2023-09-30T03:51:08;99819.47;;;22.17;100.00
46129;BME280;31860;45.186;5.790;2023-09-30T03:53:34;99819.41;;;22.18;100.00
46129;BME280;31860;45.186;5.790;2023-09-30T03:55:59;99824.59;;;22.21;100.00
46129;BME280;31860;45.186;5.790;2023-09-30T03:58:24;99832.59;;;22.21;100.00
46129;BME280;31860;45.186;5.790;2023-09-30T04:00:50;99835.38;;;22.18;100.00
46129;BME280;31860;45.186;5.790;2023-09-30T04:03:16;99841.50;;;22.20;100.00
46129;BME280;31860;45.186;5.790;2023-09-30T04:05:42;99852.09;;;22.22;100.00
46129;BME280;31860;45.186;5.790;2023-09-30T04:08:07;99850.41;;;22.19;100.00
46129;BME280;31860;45.186;5.790;2023-09-30T04:10:32;99842.47;;;22.18;100.00
46129;BME280;31860;45.186;5.790;2023-09-30T04:12:58;99832.03;;;22.13;100.00
46129;BME280;31860;45.186;5.790;2023-09-30T04:15:23;99826.78;;;22.10;100.00
46129;BME280;31860;45.186;5.790;2023-09-30T04:17:49;99818.81;;;22.10;100.00
46129;BME280;31860;45.186;5.790;2023-09-30T04:20:14;99828.59;;;22.10;100.00
46129;BME280;31860;45.186;5.790;2023-09-30T04:22:48;99831.28;;;22.08;100.00
46129;BME280;31860;45.186;5.790;2023-09-30T04:25:17;99826.22;;;22.02;100.00
46129;BME280;31860;45.186;5.790;2023-09-30T04:27:43;99822.69;;;22.02;100.00
46129;BME280;31860;45.186;5.790;2023-09-30T04:30:10;99829.72;;;22.03;100.00
46129;BME280;31860;45.186;5.790;2023-09-30T04:32:39;99841.09;;;22.08;100.00
46129;BME280;31860;45.186;5.790;2023-09-30T04:35:05;99844.56;;;22.10;100.00
46129;BME280;31860;45.186;5.790;2023-09-30T04:37:30;99843.75;;;22.08;100.00
46129;BME280;31860;45.186;5.790;2023-09-30T04:39:56;99845.47;;;22.09;100.00
46129;BME280;31860;45.186;5.790;2023-09-30T04:42:22;99838.53;;;22.05;100.00
46129;BME280;31860;45.186;5.790;2023-09-30T04:44:50;99838.72;;;22.00;100.00
46129;BME280;31860;45.186;5.790;2023-09-30T04:47:15;99836.09;;;21.99;100.00
46129;BME280;31860;45.186;5.790;2023-09-30T04:49:41;99837.84;;;22.00;100.00
46129;BME280;31860;45.186;5.790;2023-09-30T04:52:08;99827.94;;;22.03;100.00
46129;BME280;31860;45.186;5.790;2023-09-30T04:54:34;99830.53;;;22.05;100.00
46129;BME280;31860;45.186;5.790;2023-09-30T04:57:01;99827.94;;;22.03;100.00
46129;BME280;31860;45.186;5.790;2023-09-30T04:59:27;99822.75;;;22.00;100.00
46129;BME280;31860;45.186;5.790;2023-09-30T05:01:53;99826.38;;;21.98;100.00
46129;BME280;31860;45.186;5.790;2023-09-30T05:04:19;99837.16;;;21.93;100.00
46129;BME280;31860;45.186;5.790;2023-09-30T05:06:45;99837.09;;;21.96;100.00
46129;BME280;31860;45.186;5.790;2023-09-30T05:09:10;99835.25;;;21.98;100.00
46129;BME280;31860;45.186;5.790;2023-09-30T05:11:35;99840.59;;;21.97;100.00
46129;BME280;31860;45.186;5.790;2023-09-30T05:14:01;99829.16;;;21.95;100.00
46129;BME280;31860;45.186;5.790;2023-09-30T05:16:26;99842.50;;;21.93;100.00
46129;BME280;31860;45.186;5.790;2023-09-30T05:18:52;99848.75;;;21.92;100.00
46129;BME280;31860;45.186;5.790;2023-09-30T05:21:17;99846.97;;;21.93;100.00
46129;BME280;31860;45.186;5.790;2023-09-30T05:23:43;99850.53;;;21.92;100.00
46129;BME280;31860;45.186;5.790;2023-09-30T05:26:08;99847.94;;;21.90;100.00
46129;BME280;31860;45.186;5.790;2023-09-30T05:28:33;99855.03;;;21.90;100.00
46129;BME280;31860;45.186;5.790;2023-09-30T05:30:59;99852.44;;;21.88;100.00
46129;BME280;31860;45.186;5.790;2023-09-30T05:33:26;99857.75;;;21.88;100.00
46129;BME280;31860;45.186;5.790;2023-09-30T05:35:53;99861.25;;;21.90;100.00
46129;BME280;31860;45.186;5.790;2023-09-30T05:38:19;99864.81;;;21.89;100.00
46129;BME280;31860;45.186;5.790;2023-09-30T05:40:45;99863.16;;;21.87;100.00
46129;BME280;31860;45.186;5.790;2023-09-30T05:43:11;99878.09;;;21.89;100.00
46129;BME280;31860;45.186;5.790;2023-09-30T05:45:39;99875.34;;;21.92;100.00
46129;BME280;31860;45.186;5.790;2023-09-30T05:48:05;99878.72;;;21.97;100.00
46129;BME280;31860;45.186;5.790;2023-09-30T05:50:32;99879.53;;;21.99;100.00
46129;BME280;31860;45.186;5.790;2023-09-30T05:52:59;99890.09;;;22.02;100.00
46129;BME280;31860;45.186;5.790;2023-09-30T05:55:25;99893.50;;;22.06;100.00
46129;BME280;31860;45.186;5.790;2023-09-30T05:57:51;99896.00;;;22.10;100.00
46129;BME280;31860;45.186;5.790;2023-09-30T06:00:17;99898.56;;;22.13;100.00
46129;BME280;31860;45.186;5.790;2023-09-30T06:02:54;99894.91;;;22.16;100.00
46129;BME280;31860;45.186;5.790;2023-09-30T06:05:20;99887.72;;;22.18;100.00
46129;BME280;31860;45.186;5.790;2023-09-30T06:07:47;99889.44;;;22.20;100.00
46129;BME280;31860;45.186;5.790;2023-09-30T06:10:13;99883.97;;;22.23;100.00
46129;BME280;31860;45.186;5.790;2023-09-30T06:12:41;99889.22;;;22.26;100.00
46129;BME280;31860;45.186;5.790;2023-09-30T06:15:07;99891.88;;;22.26;100.00
46129;BME280;31860;45.186;5.790;2023-09-30T06:17:33;99896.25;;;22.27;100.00
46129;BME280;31860;45.186;5.790;2023-09-30T06:19:58;99889.97;;;22.30;100.00
46129;BME280;31860;45.186;5.790;2023-09-30T06:22:32;99882.78;;;22.32;100.00
46129;BME280;31860;45.186;5.790;2023-09-30T06:24:58;99887.03;;;22.37;100.00
46129;BME280;31860;45.186;5.790;2023-09-30T06:27:23;99887.03;;;22.37;100.00
46129;BME280;31860;45.186;5.790;2023-09-30T06:29:49;99897.56;;;22.40;100.00
46129;BME280;31860;45.186;5.790;2023-09-30T06:32:14;99903.75;;;22.41;100.00
46129;BME280;31860;45.186;5.790;2023-09-30T06:34:40;99906.28;;;22.44;100.00
46129;BME280;31860;45.186;5.790;2023-09-30T06:37:06;99902.66;;;22.46;100.00
46129;BME280;31860;45.186;5.790;2023-09-30T06:39:31;99910.53;;;22.49;100.00
46129;BME280;31860;45.186;5.790;2023-09-30T06:41:56;99910.50;;;22.51;100.00
46129;BME280;31860;45.186;5.790;2023-09-30T06:44:22;99899.78;;;22.52;100.00
46129;BME280;31860;45.186;5.790;2023-09-30T06:46:50;99904.13;;;22.55;100.00
46129;BME280;31860;45.186;5.790;2023-09-30T06:49:16;99906.75;;;22.56;100.00
46129;BME280;31860;45.186;5.790;2023-09-30T06:51:41;99911.16;;;22.57;100.00
46129;BME280;31860;45.186;5.790;2023-09-30T06:54:07;99905.75;;;22.59;100.00
46129;BME280;31860;45.186;5.790;2023-09-30T06:56:33;99908.28;;;22.64;100.00
46129;BME280;31860;45.186;5.790;2023-09-30T06:58:58;99902.88;;;22.65;100.00
46129;BME280;31860;45.186;5.790;2023-09-30T07:01:24;99902.66;;;22.71;100.00
46129;BME280;31860;45.186;5.790;2023-09-30T07:03:50;99911.31;;;22.76;100.00
46129;BME280;31860;45.186;5.790;2023-09-30T07:06:25;99916.38;;;22.84;100.00
46129;BME280;31860;45.186;5.790;2023-09-30T07:08:52;99923.22;;;22.91;100.00
46129;BME280;31860;45.186;5.790;2023-09-30T07:11:27;99929.97;;;22.99;100.00
46129;BME280;31860;45.186;5.790;2023-09-30T07:13:53;99927.16;;;23.04;100.00
46129;BME280;31860;45.186;5.790;2023-09-30T07:16:19;99918.91;;;23.10;100.00
46129;BME280;31860;45.186;5.790;2023-09-30T07:18:44;99930.28;;;23.15;100.00
46129;BME280;31860;45.186;5.790;2023-09-30T07:21:09;99939.91;;;23.17;100.00
46129;BME280;31860;45.186;5.790;2023-09-30T07:23:35;99937.22;;;23.19;100.00
46129;BME280;31860;45.186;5.790;2023-09-30T07:26:00;99942.56;;;23.19;100.00
46129;BME280;31860;45.186;5.790;2023-09-30T07:28:25;99948.72;;;23.19;100.00
46129;BME280;31860;45.186;5.790;2023-09-30T07:30:51;99947.81;;;23.20;100.00
46129;BME280;31860;45.186;5.790;2023-09-30T07:33:17;99950.41;;;23.22;100.00
46129;BME280;31860;45.186;5.790;2023-09-30T07:35:42;99948.69;;;23.21;100.00
46129;BME280;31860;45.186;5.790;2023-09-30T07:38:08;99948.72;;;23.19;100.00
46129;BME280;31860;45.186;5.790;2023-09-30T07:40:33;99948.78;;;23.18;100.00
46129;BME280;31860;45.186;5.790;2023-09-30T07:42:58;99956.88;;;23.16;100.00
46129;BME280;31860;45.186;5.790;2023-09-30T07:45:24;99946.19;;;23.16;100.00
46129;BME280;31860;45.186;5.790;2023-09-30T07:47:49;99942.56;;;23.19;100.00
46129;BME280;31860;45.186;5.790;2023-09-30T07:50:16;99944.19;;;23.23;100.00
46129;BME280;31860;45.186;5.790;2023-09-30T07:52:42;99942.25;;;23.26;100.00
46129;BME280;31860;45.186;5.790;2023-09-30T07:55:09;99938.56;;;23.29;100.00
46129;BME280;31860;45.186;5.790;2023-09-30T07:57:34;99952.44;;;23.38;100.00
46129;BME280;31860;45.186;5.790;2023-09-30T08:00:00;99950.50;;;23.43;100.00
46129;BME280;31860;45.186;5.790;2023-09-30T08:02:28;99947.50;;;23.51;100.00
46129;BME280;31860;45.186;5.790;2023-09-30T08:04:58;99948.19;;;23.56;100.00
46129;BME280;31860;45.186;5.790;2023-09-30T08:07:23;99946.09;;;23.64;100.00
46129;BME280;31860;45.186;5.790;2023-09-30T08:09:48;99949.50;;;23.68;100.00
46129;BME280;31860;45.186;5.790;2023-09-30T08:12:14;99951.16;;;23.70;100.00
46129;BME280;31860;45.186;5.790;2023-09-30T08:14:39;99949.03;;;23.78;100.00
46129;BME280;31860;45.186;5.790;2023-09-30T08:17:04;99950.50;;;23.85;100.00
46129;BME280;31860;45.186;5.790;2023-09-30T08:19:30;99938.78;;;23.89;100.00
46129;BME280;31860;45.186;5.790;2023-09-30T08:21:55;99944.81;;;23.94;100.00
46129;BME280;31860;45.186;5.790;2023-09-30T08:24:21;99945.47;;;23.99;100.00
46129;BME280;31860;45.186;5.790;2023-09-30T08:26:47;99955.00;;;24.06;100.00
46129;BME280;31860;45.186;5.790;2023-09-30T08:29:12;99950.38;;;24.10;100.00
46129;BME280;31860;45.186;5.790;2023-09-30T08:31:38;99950.19;;;24.14;100.00
46129;BME280;31860;45.186;5.790;2023-09-30T08:34:03;99945.50;;;24.19;100.00
46129;BME280;31860;45.186;5.790;2023-09-30T08:36:29;99933.69;;;24.25;100.00
46129;BME280;31860;45.186;5.790;2023-09-30T08:38:55;99936.84;;;24.34;100.00
46129;BME280;31860;45.186;5.790;2023-09-30T08:41:30;99924.00;;;24.42;98.11
46129;BME280;31860;45.186;5.790;2023-09-30T08:43:59;99932.50;;;24.52;96.40
46129;BME280;31860;45.186;5.790;2023-09-30T08:46:25;99932.00;;;24.63;93.17
46129;BME280;31860;45.186;5.790;2023-09-30T08:48:52;99932.44;;;24.74;91.13
46129;BME280;31860;45.186;5.790;2023-09-30T08:51:18;99931.84;;;24.86;90.34
46129;BME280;31860;45.186;5.790;2023-09-30T08:53:44;99936.94;;;24.92;90.37
46129;BME280;31860;45.186;5.790;2023-09-30T08:56:09;99941.13;;;24.97;90.36
46129;BME280;31860;45.186;5.790;2023-09-30T08:58:36;99946.25;;;25.02;89.92
46129;BME280;31860;45.186;5.790;2023-09-30T09:01:02;99944.88;;;25.12;88.84
46129;BME280;31860;45.186;5.790;2023-09-30T09:03:28;99948.84;;;25.22;87.53
46129;BME280;31860;45.186;5.790;2023-09-30T09:05:57;99947.41;;;25.33;84.84
46129;BME280;31860;45.186;5.790;2023-09-30T09:08:25;99944.16;;;25.46;82.59
46129;BME280;31860;45.186;5.790;2023-09-30T09:10:56;99947.03;;;25.60;81.72
46129;BME280;31860;45.186;5.790;2023-09-30T09:13:23;99942.75;;;25.74;80.39
46129;BME280;31860;45.186;5.790;2023-09-30T09:15:49;99940.56;;;25.82;78.05
46129;BME280;31860;45.186;5.790;2023-09-30T09:18:31;99939.28;;;25.89;76.12
46129;BME280;31860;45.186;5.790;2023-09-30T09:23:39;99940.00;;;25.93;75.76
46129;BME280;31860;45.186;5.790;2023-09-30T09:26:04;99939.94;;;25.94;76.68
46129;BME280;31860;45.186;5.790;2023-09-30T09:28:35;99937.28;;;25.94;77.77
46129;BME280;31860;45.186;5.790;2023-09-30T09:31:30;99937.97;;;25.98;76.59
46129;BME280;31860;45.186;5.790;2023-09-30T09:33:57;99947.50;;;26.03;75.79
46129;BME280;31860;45.186;5.790;2023-09-30T09:36:40;99942.69;;;26.11;73.56
46129;BME280;31860;45.186;5.790;2023-09-30T09:39:06;99949.13;;;26.24;71.88
46129;BME280;31860;45.186;5.790;2023-09-30T09:41:32;99938.72;;;26.36;70.39
46129;BME280;31860;45.186;5.790;2023-09-30T09:43:59;99935.47;;;26.46;69.10
46129;BME280;31860;45.186;5.790;2023-09-30T09:46:27;99935.53;;;26.62;67.00
46129;BME280;31860;45.186;5.790;2023-09-30T09:48:53;99936.72;;;26.73;66.35
46129;BME280;31860;45.186;5.790;2023-09-30T09:51:20;99932.41;;;26.86;66.01
46129;BME280;31860;45.186;5.790;2023-09-30T09:53:46;99936.06;;;27.01;65.04
46129;BME280;31860;45.186;5.790;2023-09-30T09:56:15;99934.44;;;27.14;63.51
46129;BME280;31860;45.186;5.790;2023-09-30T09:58:40;99931.09;;;27.26;63.05
46129;BME280;31860;45.186;5.790;2023-09-30T10:01:10;99931.53;;;27.34;61.67
46129;BME280;31860;45.186;5.790;2023-09-30T10:03:38;99927.91;;;27.51;60.97
46129;BME280;31860;45.186;5.790;2023-09-30T10:06:04;99923.50;;;27.79;59.59
46129;BME280;31860;45.186;5.790;2023-09-30T10:08:39;99926.50;;;28.20;57.38
46129;BME280;31860;45.186;5.790;2023-09-30T10:11:06;99918.13;;;28.54;56.38
46129;BME280;31860;45.186;5.790;2023-09-30T10:13:51;99922.66;;;28.96;52.84
46129;BME280;31860;45.186;5.790;2023-09-30T10:21:33;99908.09;;;29.94;50.60
46129;BME280;31860;45.186;5.790;2023-09-30T10:30:06;99899.75;;;33.85;40.20
46129;BME280;31860;45.186;5.790;2023-09-30T10:35:20;99892.81;;;37.51;34.44
46129;BME280;31860;45.186;5.790;2023-09-30T10:37:46;99888.09;;;38.06;34.91
46129;BME280;31860;45.186;5.790;2023-09-30T10:40:28;99896.41;;;39.09;30.68
46129;BME280;31860;45.186;5.790;2023-09-30T10:42:54;99895.72;;;39.48;32.22
46129;BME280;31860;45.186;5.790;2023-09-30T10:50:59;99889.38;;;39.48;31.77
46129;BME280;31860;45.186;5.790;2023-09-30T10:53:26;99882.81;;;39.91;31.41
46129;BME280;31860;45.186;5.790;2023-09-30T10:55:59;99876.66;;;40.69;28.82
46129;BME280;31860;45.186;5.790;2023-09-30T10:58:44;99877.22;;;42.03;26.11
46129;BME280;31860;45.186;5.790;2023-09-30T11:01:14;99869.88;;;42.41;27.99
46129;BME280;31860;45.186;5.790;2023-09-30T11:03:41;99866.47;;;43.20;26.91
46129;BME280;31860;45.186;5.790;2023-09-30T11:06:07;99870.28;;;44.11;25.80
46129;BME280;31860;45.186;5.790;2023-09-30T11:08:33;99861.34;;;44.86;24.90
46129;BME280;31860;45.186;5.790;2023-09-30T11:10:58;99856.38;;;45.50;24.03
46129;BME280;31860;45.186;5.790;2023-09-30T11:13:31;99854.59;;;46.03;21.47
46129;BME280;31860;45.186;5.790;2023-09-30T11:16:04;99854.16;;;46.58;21.53
46129;BME280;31860;45.186;5.790;2023-09-30T11:18:30;99849.25;;;46.86;22.46
46129;BME280;31860;45.186;5.790;2023-09-30T11:21:08;99840.94;;;46.99;20.16
46129;BME280;31860;45.186;5.790;2023-09-30T11:23:34;99838.31;;;47.17;21.87
46129;BME280;31860;45.186;5.790;2023-09-30T11:26:00;99836.84;;;47.59;21.32
46129;BME280;31860;45.186;5.790;2023-09-30T11:28:38;99839.19;;;47.55;19.05
46129;BME280;31860;45.186;5.790;2023-09-30T11:31:08;99828.19;;;47.42;20.20
46129;BME280;31860;45.186;5.790;2023-09-30T11:33:47;99830.75;;;47.37;18.72
46129;BME280;31860;45.186;5.790;2023-09-30T11:36:14;99823.03;;;46.95;21.27
46129;BME280;31860;45.186;5.790;2023-09-30T11:38:44;99818.34;;;46.89;20.06
46129;BME280;31860;45.186;5.790;2023-09-30T11:41:10;99819.25;;;47.40;20.59
46129;BME280;31860;45.186;5.790;2023-09-30T11:43:36;99826.84;;;47.89;20.03
46129;BME280;31860;45.186;5.790;2023-09-30T11:46:12;99817.56;;;48.76;17.75
46129;BME280;31860;45.186;5.790;2023-09-30T11:48:56;99813.88;;;48.82;18.76
46129;BME280;31860;45.186;5.790;2023-09-30T11:51:22;99799.25;;;48.86;19.23
46129;BME280;31860;45.186;5.790;2023-09-30T11:53:52;99793.09;;;49.02;18.84
46129;BME280;31860;45.186;5.790;2023-09-30T11:56:18;99796.72;;;49.21;18.39
46129;BME280;31860;45.186;5.790;2023-09-30T11:58:44;99801.78;;;48.70;19.09
46129;BME280;31860;45.186;5.790;2023-09-30T12:01:11;99799.63;;;48.53;18.63
46129;BME280;31860;45.186;5.790;2023-09-30T12:03:39;99792.69;;;48.44;18.80
46129;BME280;31860;45.186;5.790;2023-09-30T12:06:05;99789.53;;;48.59;18.62
46129;BME280;31860;45.186;5.790;2023-09-30T12:08:31;99780.25;;;47.98;19.05
46129;BME280;31860;45.186;5.790;2023-09-30T12:10:57;99781.09;;;47.74;18.79
46129;BME280;31860;45.186;5.790;2023-09-30T12:13:25;99778.09;;;47.44;19.16
46129;BME280;31860;45.186;5.790;2023-09-30T12:15:50;99769.19;;;47.66;18.89
46129;BME280;31860;45.186;5.790;2023-09-30T12:18:18;99764.00;;;48.01;18.72
46129;BME280;31860;45.186;5.790;2023-09-30T12:20:49;99758.13;;;47.91;18.91
46129;BME280;31860;45.186;5.790;2023-09-30T12:23:14;99762.38;;;47.69;18.52
46129;BME280;31860;45.186;5.790;2023-09-30T12:25:39;99755.41;;;47.53;18.62
46129;BME280;31860;45.186;5.790;2023-09-30T12:28:05;99764.97;;;47.89;18.39
46129;BME280;31860;45.186;5.790;2023-09-30T12:30:30;99756.88;;;48.36;17.85
46129;BME280;31860;45.186;5.790;2023-09-30T12:32:57;99750.66;;;49.13;17.33
46129;BME280;31860;45.186;5.790;2023-09-30T12:35:23;99747.09;;;48.70;17.92
46129;BME280;31860;45.186;5.790;2023-09-30T12:37:48;99755.25;;;47.80;18.12
46129;BME280;31860;45.186;5.790;2023-09-30T12:40:13;99749.66;;;46.66;18.63
46129;BME280;31860;45.186;5.790;2023-09-30T12:42:42;99755.06;;;46.29;18.97
46129;BME280;31860;45.186;5.790;2023-09-30T12:45:08;99745.63;;;46.49;18.65
46129;BME280;31860;45.186;5.790;2023-09-30T12:47:34;99746.09;;;46.46;18.72
46129;BME280;31860;45.186;5.790;2023-09-30T12:49:59;99756.72;;;46.30;18.79
46129;BME280;31860;45.186;5.790;2023-09-30T12:52:24;99750.34;;;46.42;18.62
46129;BME280;31860;45.186;5.790;2023-09-30T12:54:51;99752.50;;;46.08;18.66
46129;BME280;31860;45.186;5.790;2023-09-30T12:57:17;99743.31;;;45.81;18.86
46129;BME280;31860;45.186;5.790;2023-09-30T12:59:45;99746.53;;;46.11;18.61
46129;BME280;31860;45.186;5.790;2023-09-30T13:02:12;99741.19;;;45.83;18.78
46129;BME280;31860;45.186;5.790;2023-09-30T13:04:38;99737.81;;;45.81;18.47
46129;BME280;31860;45.186;5.790;2023-09-30T13:07:08;99744.81;;;45.77;18.58
46129;BME280;31860;45.186;5.790;2023-09-30T13:09:34;99736.72;;;46.28;18.05
46129;BME280;31860;45.186;5.790;2023-09-30T13:11:59;99731.63;;;46.38;17.77
46129;BME280;31860;45.186;5.790;2023-09-30T13:14:25;99724.63;;;45.96;18.24
46129;BME280;31860;45.186;5.790;2023-09-30T13:16:53;99719.19;;;44.62;18.92